sensor_id;sensor_type;location;lat;lon;timestamp;P1;durP1;ratioP1;P2;durP2;ratioP2
59492;SDS011;45497;43.996;22.876;2023-04-06T00:01:24;14.37;;;8.20;;
59492;SDS011;45497;43.996;22.876;2023-04-06T00:03:50;13.73;;;8.10;;
59492;SDS011;45497;43.996;22.876;2023-04-06T00:06:16;21.08;;;9.80;;
59492;SDS011;45497;43.996;22.876;2023-04-06T00:08:41;15.52;;;8.05;;
59492;SDS011;45497;43.996;22.876;2023-04-06T00:11:08;17.40;;;8.25;;
59492;SDS011;45497;43.996;22.876;2023-04-06T00:13:33;12.57;;;7.97;;
59492;SDS011;45497;43.996;22.876;2023-04-06T00:15:59;21.60;;;10.55;;
59492;SDS011;45497;43.996;22.876;2023-04-06T00:18:25;15.77;;;10.10;;
59492;SDS011;45497;43.996;22.876;2023-04-06T00:20:51;18.50;;;13.15;;
59492;SDS011;45497;43.996;22.876;2023-04-06T00:23:17;32.42;;;29.08;;
59492;SDS011;45497;43.996;22.876;2023-04-06T00:25:42;57.22;;;46.10;;
59492;SDS011;45497;43.996;22.876;2023-04-06T00:28:08;75.60;;;53.53;;
59492;SDS011;45497;43.996;22.876;2023-04-06T00:30:34;93.50;;;54.92;;
59492;SDS011;45497;43.996;22.876;2023-04-06T00:32:59;143.67;;;66.47;;
59492;SDS011;45497;43.996;22.876;2023-04-06T00:35:25;229.82;;;82.50;;
59492;SDS011;45497;43.996;22.876;2023-04-06T00:37:51;183.55;;;74.82;;
59492;SDS011;45497;43.996;22.876;2023-04-06T00:40:17;479.30;;;123.50;;
59492;SDS011;45497;43.996;22.876;2023-04-06T00:42:42;13.90;;;8.10;;
59492;SDS011;45497;43.996;22.876;2023-04-06T00:45:08;13.65;;;7.32;;
59492;SDS011;45497;43.996;22.876;2023-04-06T00:47:34;17.55;;;8.25;;
59492;SDS011;45497;43.996;22.876;2023-04-06T00:50:00;15.40;;;8.25;;
59492;SDS011;45497;43.996;22.876;2023-04-06T00:52:25;12.65;;;7.22;;
59492;SDS011;45497;43.996;22.876;2023-04-06T00:54:51;13.73;;;7.60;;
59492;SDS011;45497;43.996;22.876;2023-04-06T00:57:17;15.23;;;8.30;;
59492;SDS011;45497;43.996;22.876;2023-04-06T00:59:43;14.77;;;7.32;;
59492;SDS011;45497;43.996;22.876;2023-04-06T01:02:09;14.60;;;7.28;;
59492;SDS011;45497;43.996;22.876;2023-04-06T01:04:35;13.03;;;7.43;;
59492;SDS011;45497;43.996;22.876;2023-04-06T01:07:00;13.33;;;7.33;;
59492;SDS011;45497;43.996;22.876;2023-04-06T01:09:29;15.20;;;8.17;;
59492;SDS011;45497;43.996;22.876;2023-04-06T01:11:56;14.52;;;8.40;;
59492;SDS011;45497;43.996;22.876;2023-04-06T01:14:22;8.97;;;6.70;;
59492;SDS011;45497;43.996;22.876;2023-04-06T01:16:48;13.87;;;7.43;;
59492;SDS011;45497;43.996;22.876;2023-04-06T01:19:14;14.60;;;7.50;;
59492;SDS011;45497;43.996;22.876;2023-04-06T01:21:40;15.33;;;7.87;;
59492;SDS011;45497;43.996;22.876;2023-04-06T01:24:07;14.85;;;8.07;;
59492;SDS011;45497;43.996;22.876;2023-04-06T01:26:33;13.68;;;7.95;;
59492;SDS011;45497;43.996;22.876;2023-04-06T01:29:00;15.43;;;8.23;;
59492;SDS011;45497;43.996;22.876;2023-04-06T01:31:26;15.75;;;8.70;;
59492;SDS011;45497;43.996;22.876;2023-04-06T01:33:52;12.53;;;7.90;;
59492;SDS011;45497;43.996;22.876;2023-04-06T01:36:18;12.05;;;7.78;;
59492;SDS011;45497;43.996;22.876;2023-04-06T01:38:43;15.17;;;8.50;;
59492;SDS011;45497;43.996;22.876;2023-04-06T01:41:09;13.40;;;8.00;;
59492;SDS011;45497;43.996;22.876;2023-04-06T01:43:34;13.03;;;8.67;;
59492;SDS011;45497;43.996;22.876;2023-04-06T01:46:00;16.10;;;10.18;;
59492;SDS011;45497;43.996;22.876;2023-04-06T01:48:26;12.88;;;9.73;;
59492;SDS011;45497;43.996;22.876;2023-04-06T01:50:52;13.40;;;10.17;;
59492;SDS011;45497;43.996;22.876;2023-04-06T01:53:18;14.80;;;12.95;;
59492;SDS011;45497;43.996;22.876;2023-04-06T01:55:43;16.37;;;13.27;;
59492;SDS011;45497;43.996;22.876;2023-04-06T01:58:09;17.33;;;12.73;;
59492;SDS011;45497;43.996;22.876;2023-04-06T02:00:35;20.27;;;15.07;;
59492;SDS011;45497;43.996;22.876;2023-04-06T02:03:00;17.43;;;12.00;;
59492;SDS011;45497;43.996;22.876;2023-04-06T02:05:26;16.97;;;12.53;;
59492;SDS011;45497;43.996;22.876;2023-04-06T02:07:53;365.95;;;199.25;;
59492;SDS011;45497;43.996;22.876;2023-04-06T02:10:18;48.38;;;42.42;;
59492;SDS011;45497;43.996;22.876;2023-04-06T02:12:44;28.45;;;23.48;;
59492;SDS011;45497;43.996;22.876;2023-04-06T02:15:09;25.90;;;23.30;;
59492;SDS011;45497;43.996;22.876;2023-04-06T02:17:35;22.88;;;20.73;;
59492;SDS011;45497;43.996;22.876;2023-04-06T02:20:01;21.73;;;19.67;;
59492;SDS011;45497;43.996;22.876;2023-04-06T02:22:26;24.17;;;21.87;;
59492;SDS011;45497;43.996;22.876;2023-04-06T02:24:52;28.07;;;25.43;;
59492;SDS011;45497;43.996;22.876;2023-04-06T02:27:17;30.52;;;27.63;;
59492;SDS011;45497;43.996;22.876;2023-04-06T02:29:43;32.20;;;28.97;;
59492;SDS011;45497;43.996;22.876;2023-04-06T02:32:08;30.17;;;27.43;;
59492;SDS011;45497;43.996;22.876;2023-04-06T02:34:34;34.40;;;31.00;;
59492;SDS011;45497;43.996;22.876;2023-04-06T02:36:59;33.17;;;29.73;;
59492;SDS011;45497;43.996;22.876;2023-04-06T02:39:25;33.85;;;30.35;;
59492;SDS011;45497;43.996;22.876;2023-04-06T02:41:51;39.92;;;35.30;;
59492;SDS011;45497;43.996;22.876;2023-04-06T02:44:16;38.05;;;34.15;;
59492;SDS011;45497;43.996;22.876;2023-04-06T02:46:42;38.10;;;34.10;;
59492;SDS011;45497;43.996;22.876;2023-04-06T02:49:07;34.07;;;30.67;;
59492;SDS011;45497;43.996;22.876;2023-04-06T02:51:33;35.95;;;32.10;;
59492;SDS011;45497;43.996;22.876;2023-04-06T02:53:58;24.73;;;22.05;;
59492;SDS011;45497;43.996;22.876;2023-04-06T02:56:24;32.78;;;29.60;;
59492;SDS011;45497;43.996;22.876;2023-04-06T02:58:50;39.07;;;34.90;;
59492;SDS011;45497;43.996;22.876;2023-04-06T03:01:15;26.77;;;23.13;;
59492;SDS011;45497;43.996;22.876;2023-04-06T03:03:41;20.83;;;18.93;;
59492;SDS011;45497;43.996;22.876;2023-04-06T03:06:06;24.83;;;22.47;;
59492;SDS011;45497;43.996;22.876;2023-04-06T03:08:32;24.77;;;22.50;;
59492;SDS011;45497;43.996;22.876;2023-04-06T03:10:57;23.10;;;21.20;;
59492;SDS011;45497;43.996;22.876;2023-04-06T03:13:23;26.33;;;23.43;;
59492;SDS011;45497;43.996;22.876;2023-04-06T03:15:48;24.00;;;21.60;;
59492;SDS011;45497;43.996;22.876;2023-04-06T03:18:14;22.57;;;18.57;;
59492;SDS011;45497;43.996;22.876;2023-04-06T03:20:40;19.65;;;15.05;;
59492;SDS011;45497;43.996;22.876;2023-04-06T03:23:05;14.60;;;11.60;;
59492;SDS011;45497;43.996;22.876;2023-04-06T03:25:31;16.40;;;13.18;;
59492;SDS011;45497;43.996;22.876;2023-04-06T03:27:56;19.20;;;15.43;;
59492;SDS011;45497;43.996;22.876;2023-04-06T03:30:22;19.63;;;13.70;;
59492;SDS011;45497;43.996;22.876;2023-04-06T03:32:47;17.07;;;13.17;;
59492;SDS011;45497;43.996;22.876;2023-04-06T03:35:13;18.55;;;13.70;;
59492;SDS011;45497;43.996;22.876;2023-04-06T03:37:38;22.20;;;17.20;;
59492;SDS011;45497;43.996;22.876;2023-04-06T03:40:04;22.17;;;16.60;;
59492;SDS011;45497;43.996;22.876;2023-04-06T03:42:30;22.15;;;13.52;;
59492;SDS011;45497;43.996;22.876;2023-04-06T03:44:57;20.55;;;14.77;;
59492;SDS011;45497;43.996;22.876;2023-04-06T03:47:23;16.10;;;11.57;;
59492;SDS011;45497;43.996;22.876;2023-04-06T03:49:49;16.88;;;10.77;;
59492;SDS011;45497;43.996;22.876;2023-04-06T03:52:15;18.23;;;10.23;;
59492;SDS011;45497;43.996;22.876;2023-04-06T03:54:41;15.32;;;10.57;;
59492;SDS011;45497;43.996;22.876;2023-04-06T03:57:06;18.63;;;10.70;;
59492;SDS011;45497;43.996;22.876;2023-04-06T03:59:32;21.23;;;13.40;;
59492;SDS011;45497;43.996;22.876;2023-04-06T04:01:57;22.17;;;12.87;;
59492;SDS011;45497;43.996;22.876;2023-04-06T04:04:22;19.08;;;12.13;;
59492;SDS011;45497;43.996;22.876;2023-04-06T04:06:48;22.67;;;14.07;;
59492;SDS011;45497;43.996;22.876;2023-04-06T04:09:13;18.53;;;12.33;;
59492;SDS011;45497;43.996;22.876;2023-04-06T04:11:39;15.77;;;12.23;;
59492;SDS011;45497;43.996;22.876;2023-04-06T04:14:05;18.05;;;12.93;;
59492;SDS011;45497;43.996;22.876;2023-04-06T04:16:30;17.52;;;12.38;;
59492;SDS011;45497;43.996;22.876;2023-04-06T04:18:56;17.10;;;12.27;;
59492;SDS011;45497;43.996;22.876;2023-04-06T04:21:23;16.90;;;11.57;;
59492;SDS011;45497;43.996;22.876;2023-04-06T04:23:48;15.53;;;11.47;;
59492;SDS011;45497;43.996;22.876;2023-04-06T04:26:14;18.42;;;11.98;;
59492;SDS011;45497;43.996;22.876;2023-04-06T04:28:40;19.50;;;12.07;;
59492;SDS011;45497;43.996;22.876;2023-04-06T04:31:05;19.30;;;12.03;;
59492;SDS011;45497;43.996;22.876;2023-04-06T04:33:31;19.27;;;14.77;;
59492;SDS011;45497;43.996;22.876;2023-04-06T04:35:56;25.77;;;15.88;;
59492;SDS011;45497;43.996;22.876;2023-04-06T04:38:22;24.23;;;14.88;;
59492;SDS011;45497;43.996;22.876;2023-04-06T04:40:47;21.70;;;15.10;;
59492;SDS011;45497;43.996;22.876;2023-04-06T04:43:13;18.63;;;14.00;;
59492;SDS011;45497;43.996;22.876;2023-04-06T04:45:38;19.20;;;14.63;;
59492;SDS011;45497;43.996;22.876;2023-04-06T04:48:04;19.98;;;14.13;;
59492;SDS011;45497;43.996;22.876;2023-04-06T04:50:30;19.67;;;14.05;;
59492;SDS011;45497;43.996;22.876;2023-04-06T04:52:56;19.98;;;15.07;;
59492;SDS011;45497;43.996;22.876;2023-04-06T04:55:22;18.08;;;16.10;;
59492;SDS011;45497;43.996;22.876;2023-04-06T04:57:47;20.70;;;15.93;;
59492;SDS011;45497;43.996;22.876;2023-04-06T05:00:13;24.00;;;18.63;;
59492;SDS011;45497;43.996;22.876;2023-04-06T05:02:39;18.80;;;16.60;;
59492;SDS011;45497;43.996;22.876;2023-04-06T05:05:05;20.83;;;17.73;;
59492;SDS011;45497;43.996;22.876;2023-04-06T05:07:31;21.85;;;19.55;;
59492;SDS011;45497;43.996;22.876;2023-04-06T05:09:56;22.00;;;20.00;;
59492;SDS011;45497;43.996;22.876;2023-04-06T05:12:22;27.57;;;21.23;;
59492;SDS011;45497;43.996;22.876;2023-04-06T05:14:47;22.73;;;20.53;;
59492;SDS011;45497;43.996;22.876;2023-04-06T05:17:13;24.17;;;20.10;;
59492;SDS011;45497;43.996;22.876;2023-04-06T05:19:38;23.73;;;17.08;;
59492;SDS011;45497;43.996;22.876;2023-04-06T05:22:04;21.77;;;16.03;;
59492;SDS011;45497;43.996;22.876;2023-04-06T05:24:29;24.90;;;18.03;;
59492;SDS011;45497;43.996;22.876;2023-04-06T05:26:55;22.23;;;19.03;;
59492;SDS011;45497;43.996;22.876;2023-04-06T05:29:20;25.60;;;19.77;;
59492;SDS011;45497;43.996;22.876;2023-04-06T05:31:46;19.08;;;17.08;;
59492;SDS011;45497;43.996;22.876;2023-04-06T05:34:12;18.35;;;15.88;;
59492;SDS011;45497;43.996;22.876;2023-04-06T05:36:38;20.37;;;18.33;;
59492;SDS011;45497;43.996;22.876;2023-04-06T05:39:05;19.42;;;17.42;;
59492;SDS011;45497;43.996;22.876;2023-04-06T05:41:30;22.77;;;20.00;;
59492;SDS011;45497;43.996;22.876;2023-04-06T05:43:56;20.13;;;17.55;;
59492;SDS011;45497;43.996;22.876;2023-04-06T05:46:22;19.98;;;17.88;;
59492;SDS011;45497;43.996;22.876;2023-04-06T05:48:47;20.10;;;18.10;;
59492;SDS011;45497;43.996;22.876;2023-04-06T05:51:13;20.48;;;18.27;;
59492;SDS011;45497;43.996;22.876;2023-04-06T05:53:38;23.00;;;19.90;;
59492;SDS011;45497;43.996;22.876;2023-04-06T05:56:04;21.35;;;19.35;;
59492;SDS011;45497;43.996;22.876;2023-04-06T05:58:30;21.03;;;19.10;;
59492;SDS011;45497;43.996;22.876;2023-04-06T06:00:56;21.40;;;19.40;;
59492;SDS011;45497;43.996;22.876;2023-04-06T06:03:25;21.60;;;19.40;;
59492;SDS011;45497;43.996;22.876;2023-04-06T06:05:50;22.03;;;20.00;;
59492;SDS011;45497;43.996;22.876;2023-04-06T06:08:16;20.73;;;18.77;;
59492;SDS011;45497;43.996;22.876;2023-04-06T06:10:41;22.95;;;20.55;;
59492;SDS011;45497;43.996;22.876;2023-04-06T06:13:07;21.63;;;19.40;;
59492;SDS011;45497;43.996;22.876;2023-04-06T06:15:32;18.63;;;16.93;;
59492;SDS011;45497;43.996;22.876;2023-04-06T06:17:58;24.90;;;20.57;;
59492;SDS011;45497;43.996;22.876;2023-04-06T06:20:23;24.07;;;21.57;;
59492;SDS011;45497;43.996;22.876;2023-04-06T06:22:49;21.02;;;19.05;;
59492;SDS011;45497;43.996;22.876;2023-04-06T06:25:15;18.57;;;16.97;;
59492;SDS011;45497;43.996;22.876;2023-04-06T06:27:40;18.55;;;16.70;;
59492;SDS011;45497;43.996;22.876;2023-04-06T06:30:07;20.38;;;18.35;;
59492;SDS011;45497;43.996;22.876;2023-04-06T06:32:33;20.33;;;18.60;;
59492;SDS011;45497;43.996;22.876;2023-04-06T06:34:58;20.30;;;18.43;;
59492;SDS011;45497;43.996;22.876;2023-04-06T06:37:24;20.57;;;18.97;;
59492;SDS011;45497;43.996;22.876;2023-04-06T06:39:49;21.88;;;19.88;;
59492;SDS011;45497;43.996;22.876;2023-04-06T06:42:15;21.55;;;19.67;;
59492;SDS011;45497;43.996;22.876;2023-04-06T06:44:40;23.27;;;21.10;;
59492;SDS011;45497;43.996;22.876;2023-04-06T06:47:06;20.40;;;17.20;;
59492;SDS011;45497;43.996;22.876;2023-04-06T06:49:31;21.90;;;20.05;;
59492;SDS011;45497;43.996;22.876;2023-04-06T06:51:57;23.23;;;20.97;;
59492;SDS011;45497;43.996;22.876;2023-04-06T06:54:22;23.57;;;21.27;;
59492;SDS011;45497;43.996;22.876;2023-04-06T06:56:48;17.73;;;16.43;;
59492;SDS011;45497;43.996;22.876;2023-04-06T06:59:13;23.95;;;21.95;;
59492;SDS011;45497;43.996;22.876;2023-04-06T07:01:41;20.90;;;19.30;;
59492;SDS011;45497;43.996;22.876;2023-04-06T07:04:06;21.23;;;19.50;;
59492;SDS011;45497;43.996;22.876;2023-04-06T07:06:33;29.23;;;26.25;;
59492;SDS011;45497;43.996;22.876;2023-04-06T07:09:00;28.00;;;25.60;;
59492;SDS011;45497;43.996;22.876;2023-04-06T07:11:26;26.73;;;24.43;;
59492;SDS011;45497;43.996;22.876;2023-04-06T07:13:51;25.45;;;23.23;;
59492;SDS011;45497;43.996;22.876;2023-04-06T07:16:17;25.08;;;23.05;;
59492;SDS011;45497;43.996;22.876;2023-04-06T07:18:42;24.57;;;22.47;;
59492;SDS011;45497;43.996;22.876;2023-04-06T07:21:08;28.50;;;25.97;;
59492;SDS011;45497;43.996;22.876;2023-04-06T07:23:33;29.05;;;26.40;;
59492;SDS011;45497;43.996;22.876;2023-04-06T07:25:59;29.53;;;26.93;;
59492;SDS011;45497;43.996;22.876;2023-04-06T07:28:24;35.90;;;32.30;;
59492;SDS011;45497;43.996;22.876;2023-04-06T07:30:50;46.63;;;40.45;;
59492;SDS011;45497;43.996;22.876;2023-04-06T07:33:16;41.30;;;37.13;;
59492;SDS011;45497;43.996;22.876;2023-04-06T07:35:41;40.30;;;36.07;;
59492;SDS011;45497;43.996;22.876;2023-04-06T07:38:07;40.80;;;36.63;;
59492;SDS011;45497;43.996;22.876;2023-04-06T07:40:32;42.72;;;38.05;;
59492;SDS011;45497;43.996;22.876;2023-04-06T07:42:58;50.53;;;41.97;;
59492;SDS011;45497;43.996;22.876;2023-04-06T07:45:23;46.43;;;38.97;;
59492;SDS011;45497;43.996;22.876;2023-04-06T07:47:49;42.00;;;37.70;;
59492;SDS011;45497;43.996;22.876;2023-04-06T07:50:15;44.13;;;38.25;;
59492;SDS011;45497;43.996;22.876;2023-04-06T07:52:40;48.47;;;40.55;;
59492;SDS011;45497;43.996;22.876;2023-04-06T07:55:06;46.50;;;39.78;;
59492;SDS011;45497;43.996;22.876;2023-04-06T07:57:32;49.50;;;39.97;;
59492;SDS011;45497;43.996;22.876;2023-04-06T07:59:58;54.80;;;42.57;;
59492;SDS011;45497;43.996;22.876;2023-04-06T08:02:23;58.90;;;44.33;;
59492;SDS011;45497;43.996;22.876;2023-04-06T08:04:49;58.00;;;43.63;;
59492;SDS011;45497;43.996;22.876;2023-04-06T08:07:14;63.80;;;46.03;;
59492;SDS011;45497;43.996;22.876;2023-04-06T08:09:40;71.50;;;48.03;;
59492;SDS011;45497;43.996;22.876;2023-04-06T08:12:05;75.20;;;49.20;;
59492;SDS011;45497;43.996;22.876;2023-04-06T08:14:31;77.10;;;49.47;;
59492;SDS011;45497;43.996;22.876;2023-04-06T08:16:56;81.53;;;49.57;;
59492;SDS011;45497;43.996;22.876;2023-04-06T08:19:22;72.57;;;49.35;;
59492;SDS011;45497;43.996;22.876;2023-04-06T08:21:48;75.22;;;49.85;;
59492;SDS011;45497;43.996;22.876;2023-04-06T08:24:13;65.80;;;46.67;;
59492;SDS011;45497;43.996;22.876;2023-04-06T08:26:39;71.47;;;49.53;;
59492;SDS011;45497;43.996;22.876;2023-04-06T08:29:05;72.22;;;48.45;;
59492;SDS011;45497;43.996;22.876;2023-04-06T08:31:33;78.82;;;49.35;;
59492;SDS011;45497;43.996;22.876;2023-04-06T08:34:00;92.93;;;53.78;;
59492;SDS011;45497;43.996;22.876;2023-04-06T08:36:26;83.18;;;51.45;;
59492;SDS011;45497;43.996;22.876;2023-04-06T08:38:51;52.10;;;42.57;;
59492;SDS011;45497;43.996;22.876;2023-04-06T08:41:18;39.72;;;34.15;;
59492;SDS011;45497;43.996;22.876;2023-04-06T08:44:02;50.05;;;40.92;;
59492;SDS011;45497;43.996;22.876;2023-04-06T08:46:30;64.43;;;46.22;;
59492;SDS011;45497;43.996;22.876;2023-04-06T08:48:56;65.97;;;46.70;;
59492;SDS011;45497;43.996;22.876;2023-04-06T08:51:27;97.07;;;54.25;;
59492;SDS011;45497;43.996;22.876;2023-04-06T08:53:53;142.50;;;63.08;;
59492;SDS011;45497;43.996;22.876;2023-04-06T08:56:24;156.07;;;66.03;;
59492;SDS011;45497;43.996;22.876;2023-04-06T08:58:51;113.20;;;58.22;;
59492;SDS011;45497;43.996;22.876;2023-04-06T09:01:22;73.30;;;49.53;;
59492;SDS011;45497;43.996;22.876;2023-04-06T09:03:50;27.13;;;24.50;;
59492;SDS011;45497;43.996;22.876;2023-04-06T09:06:17;25.73;;;23.33;;
59492;SDS011;45497;43.996;22.876;2023-04-06T09:08:43;28.40;;;25.75;;
59492;SDS011;45497;43.996;22.876;2023-04-06T09:11:09;31.67;;;28.30;;
59492;SDS011;45497;43.996;22.876;2023-04-06T09:13:44;27.53;;;24.93;;
59492;SDS011;45497;43.996;22.876;2023-04-06T09:16:15;28.27;;;25.67;;
59492;SDS011;45497;43.996;22.876;2023-04-06T09:18:41;24.52;;;22.27;;
59492;SDS011;45497;43.996;22.876;2023-04-06T09:21:07;26.23;;;23.45;;
59492;SDS011;45497;43.996;22.876;2023-04-06T09:23:33;23.73;;;21.50;;
59492;SDS011;45497;43.996;22.876;2023-04-06T09:28:45;36.47;;;32.92;;
59492;SDS011;45497;43.996;22.876;2023-04-06T09:31:15;41.28;;;37.03;;
59492;SDS011;45497;43.996;22.876;2023-04-06T09:33:43;48.80;;;39.92;;
59492;SDS011;45497;43.996;22.876;2023-04-06T09:36:10;55.83;;;41.95;;
59492;SDS011;45497;43.996;22.876;2023-04-06T09:38:37;50.55;;;40.97;;
59492;SDS011;45497;43.996;22.876;2023-04-06T09:41:03;51.65;;;41.60;;
59492;SDS011;45497;43.996;22.876;2023-04-06T09:43:29;62.00;;;45.15;;
59492;SDS011;45497;43.996;22.876;2023-04-06T09:45:55;65.38;;;46.00;;
59492;SDS011;45497;43.996;22.876;2023-04-06T09:48:22;67.85;;;44.95;;
59492;SDS011;45497;43.996;22.876;2023-04-06T09:50:49;63.27;;;45.60;;
59492;SDS011;45497;43.996;22.876;2023-04-06T09:53:18;69.15;;;47.65;;
59492;SDS011;45497;43.996;22.876;2023-04-06T09:55:45;68.32;;;47.38;;
59492;SDS011;45497;43.996;22.876;2023-04-06T09:58:18;65.63;;;46.63;;
59492;SDS011;45497;43.996;22.876;2023-04-06T10:00:54;94.20;;;53.03;;
59492;SDS011;45497;43.996;22.876;2023-04-06T10:03:47;70.65;;;48.55;;
59492;SDS011;45497;43.996;22.876;2023-04-06T10:06:22;87.65;;;52.83;;
59492;SDS011;45497;43.996;22.876;2023-04-06T10:08:50;106.85;;;57.08;;
59492;SDS011;45497;43.996;22.876;2023-04-06T10:11:19;96.60;;;54.38;;
59492;SDS011;45497;43.996;22.876;2023-04-06T10:13:45;46.88;;;40.42;;
59492;SDS011;45497;43.996;22.876;2023-04-06T10:16:14;40.30;;;36.20;;
59492;SDS011;45497;43.996;22.876;2023-04-06T10:18:41;39.67;;;35.47;;
59492;SDS011;45497;43.996;22.876;2023-04-06T10:21:12;34.28;;;31.25;;
59492;SDS011;45497;43.996;22.876;2023-04-06T10:26:19;31.25;;;28.35;;
59492;SDS011;45497;43.996;22.876;2023-04-06T10:28:46;27.15;;;24.75;;
59492;SDS011;45497;43.996;22.876;2023-04-06T10:31:12;22.50;;;20.80;;
59492;SDS011;45497;43.996;22.876;2023-04-06T10:33:38;23.95;;;22.17;;
59492;SDS011;45497;43.996;22.876;2023-04-06T10:36:13;24.13;;;22.02;;
59492;SDS011;45497;43.996;22.876;2023-04-06T10:38:41;21.77;;;19.60;;
59492;SDS011;45497;43.996;22.876;2023-04-06T10:41:11;23.67;;;21.38;;
59492;SDS011;45497;43.996;22.876;2023-04-06T10:43:38;27.15;;;23.23;;
59492;SDS011;45497;43.996;22.876;2023-04-06T10:46:05;20.70;;;18.90;;
59492;SDS011;45497;43.996;22.876;2023-04-06T10:48:42;16.70;;;15.07;;
59492;SDS011;45497;43.996;22.876;2023-04-06T10:53:38;9.20;;;7.78;;
59492;SDS011;45497;43.996;22.876;2023-04-06T10:56:13;11.77;;;10.68;;
59492;SDS011;45497;43.996;22.876;2023-04-06T10:58:46;9.75;;;8.48;;
59492;SDS011;45497;43.996;22.876;2023-04-06T11:01:16;9.90;;;8.33;;
59492;SDS011;45497;43.996;22.876;2023-04-06T11:03:47;8.57;;;7.22;;
59492;SDS011;45497;43.996;22.876;2023-04-06T11:06:20;9.50;;;8.00;;
59492;SDS011;45497;43.996;22.876;2023-04-06T11:08:50;11.13;;;7.68;;
59492;SDS011;45497;43.996;22.876;2023-04-06T11:11:20;11.73;;;9.80;;
59492;SDS011;45497;43.996;22.876;2023-04-06T11:16:22;11.82;;;10.65;;
59492;SDS011;45497;43.996;22.876;2023-04-06T11:18:51;13.52;;;9.98;;
59492;SDS011;45497;43.996;22.876;2023-04-06T11:24:18;11.93;;;10.75;;
59492;SDS011;45497;43.996;22.876;2023-04-06T11:26:49;12.50;;;11.40;;
59492;SDS011;45497;43.996;22.876;2023-04-06T11:29:19;12.50;;;8.90;;
59492;SDS011;45497;43.996;22.876;2023-04-06T11:34:16;10.80;;;4.97;;
59492;SDS011;45497;43.996;22.876;2023-04-06T11:36:44;8.00;;;4.20;;
59492;SDS011;45497;43.996;22.876;2023-04-06T11:39:19;9.75;;;4.18;;
59492;SDS011;45497;43.996;22.876;2023-04-06T11:41:49;9.68;;;4.95;;
59492;SDS011;45497;43.996;22.876;2023-04-06T11:44:15;5.50;;;3.60;;
59492;SDS011;45497;43.996;22.876;2023-04-06T11:46:56;10.50;;;3.80;;
59492;SDS011;45497;43.996;22.876;2023-04-06T11:49:26;8.43;;;3.83;;
59492;SDS011;45497;43.996;22.876;2023-04-06T11:51:56;7.00;;;4.30;;
59492;SDS011;45497;43.996;22.876;2023-04-06T11:54:31;6.20;;;3.55;;
59492;SDS011;45497;43.996;22.876;2023-04-06T11:57:02;6.32;;;3.70;;
59492;SDS011;45497;43.996;22.876;2023-04-06T11:59:28;8.10;;;4.05;;
59492;SDS011;45497;43.996;22.876;2023-04-06T12:01:54;9.47;;;4.27;;
59492;SDS011;45497;43.996;22.876;2023-04-06T12:04:20;7.60;;;4.47;;
59492;SDS011;45497;43.996;22.876;2023-04-06T12:06:45;4.55;;;3.33;;
59492;SDS011;45497;43.996;22.876;2023-04-06T12:09:11;6.95;;;4.13;;
59492;SDS011;45497;43.996;22.876;2023-04-06T12:11:36;6.13;;;3.43;;
59492;SDS011;45497;43.996;22.876;2023-04-06T12:14:02;8.53;;;3.20;;
59492;SDS011;45497;43.996;22.876;2023-04-06T12:16:30;5.68;;;3.60;;
59492;SDS011;45497;43.996;22.876;2023-04-06T12:18:56;9.52;;;4.60;;
59492;SDS011;45497;43.996;22.876;2023-04-06T12:21:21;9.10;;;4.32;;
59492;SDS011;45497;43.996;22.876;2023-04-06T12:23:47;7.80;;;3.33;;
59492;SDS011;45497;43.996;22.876;2023-04-06T12:26:12;7.43;;;3.57;;
59492;SDS011;45497;43.996;22.876;2023-04-06T12:28:38;8.98;;;4.00;;
59492;SDS011;45497;43.996;22.876;2023-04-06T12:31:04;11.77;;;4.80;;
59492;SDS011;45497;43.996;22.876;2023-04-06T12:33:29;8.80;;;4.23;;
59492;SDS011;45497;43.996;22.876;2023-04-06T12:35:55;9.53;;;4.13;;
59492;SDS011;45497;43.996;22.876;2023-04-06T12:38:21;8.88;;;3.60;;
59492;SDS011;45497;43.996;22.876;2023-04-06T12:40:47;7.18;;;4.25;;
59492;SDS011;45497;43.996;22.876;2023-04-06T12:43:12;7.50;;;3.38;;
59492;SDS011;45497;43.996;22.876;2023-04-06T12:45:39;7.43;;;3.20;;
59492;SDS011;45497;43.996;22.876;2023-04-06T12:48:05;8.57;;;3.95;;
59492;SDS011;45497;43.996;22.876;2023-04-06T12:50:31;9.95;;;3.28;;
59492;SDS011;45497;43.996;22.876;2023-04-06T12:52:57;5.30;;;3.03;;
59492;SDS011;45497;43.996;22.876;2023-04-06T12:55:22;18.40;;;4.50;;
59492;SDS011;45497;43.996;22.876;2023-04-06T12:57:48;10.53;;;4.30;;
59492;SDS011;45497;43.996;22.876;2023-04-06T13:00:13;13.43;;;4.90;;
59492;SDS011;45497;43.996;22.876;2023-04-06T13:02:40;9.25;;;4.38;;
59492;SDS011;45497;43.996;22.876;2023-04-06T13:05:11;10.95;;;5.93;;
59492;SDS011;45497;43.996;22.876;2023-04-06T13:07:37;9.30;;;4.77;;
59492;SDS011;45497;43.996;22.876;2023-04-06T13:10:02;9.57;;;4.50;;
59492;SDS011;45497;43.996;22.876;2023-04-06T13:12:28;12.82;;;5.03;;
59492;SDS011;45497;43.996;22.876;2023-04-06T13:14:53;13.47;;;6.43;;
59492;SDS011;45497;43.996;22.876;2023-04-06T13:17:19;10.93;;;4.87;;
59492;SDS011;45497;43.996;22.876;2023-04-06T13:19:46;13.90;;;6.50;;
59492;SDS011;45497;43.996;22.876;2023-04-06T13:22:11;12.90;;;4.70;;
59492;SDS011;45497;43.996;22.876;2023-04-06T13:24:37;15.07;;;6.07;;
59492;SDS011;45497;43.996;22.876;2023-04-06T13:27:02;7.30;;;3.90;;
59492;SDS011;45497;43.996;22.876;2023-04-06T13:29:28;12.20;;;5.47;;
59492;SDS011;45497;43.996;22.876;2023-04-06T13:31:53;9.23;;;5.70;;
59492;SDS011;45497;43.996;22.876;2023-04-06T13:34:19;14.63;;;6.13;;
59492;SDS011;45497;43.996;22.876;2023-04-06T13:36:45;13.03;;;5.80;;
59492;SDS011;45497;43.996;22.876;2023-04-06T13:39:10;8.73;;;4.50;;
59492;SDS011;45497;43.996;22.876;2023-04-06T13:41:35;14.10;;;6.97;;
59492;SDS011;45497;43.996;22.876;2023-04-06T13:44:01;9.93;;;5.00;;
59492;SDS011;45497;43.996;22.876;2023-04-06T13:46:27;11.25;;;5.93;;
59492;SDS011;45497;43.996;22.876;2023-04-06T13:48:52;12.98;;;5.85;;
59492;SDS011;45497;43.996;22.876;2023-04-06T13:51:18;12.83;;;6.97;;
59492;SDS011;45497;43.996;22.876;2023-04-06T13:53:44;13.80;;;5.97;;
59492;SDS011;45497;43.996;22.876;2023-04-06T13:56:09;12.73;;;6.82;;
59492;SDS011;45497;43.996;22.876;2023-04-06T13:58:35;17.67;;;7.47;;
59492;SDS011;45497;43.996;22.876;2023-04-06T14:01:07;13.02;;;6.95;;
59492;SDS011;45497;43.996;22.876;2023-04-06T14:03:34;15.77;;;8.60;;
59492;SDS011;45497;43.996;22.876;2023-04-06T14:06:01;15.93;;;10.27;;
59492;SDS011;45497;43.996;22.876;2023-04-06T14:08:26;14.25;;;12.90;;
59492;SDS011;45497;43.996;22.876;2023-04-06T14:10:52;14.27;;;12.50;;
59492;SDS011;45497;43.996;22.876;2023-04-06T14:13:19;14.77;;;13.43;;
59492;SDS011;45497;43.996;22.876;2023-04-06T14:15:44;16.73;;;12.57;;
59492;SDS011;45497;43.996;22.876;2023-04-06T14:18:10;15.83;;;14.33;;
59492;SDS011;45497;43.996;22.876;2023-04-06T14:20:35;14.63;;;13.30;;
59492;SDS011;45497;43.996;22.876;2023-04-06T14:23:01;15.23;;;13.80;;
59492;SDS011;45497;43.996;22.876;2023-04-06T14:25:27;12.15;;;10.18;;